TAF KMHT
AMD KMHT 280910Z 2809/2906 28006KT P6SM FEW250 FM282000 VRB03KT P6SM BKN040 FM290300 00000KT 3SM -SN BR OVC015=
METAR KMHT
WC KMHT
WS KMHT
WV KMHT